createdAt,value
2023-03-05T00:00:05.380Z,47.93
2023-03-05T00:01:05.353Z,52.29
2023-03-05T00:02:06.913Z,53.80
2023-03-05T00:03:06.324Z,54.55
2023-03-05T00:04:05.335Z,52.34
2023-03-05T00:05:05.319Z,52.02
2023-03-05T00:06:05.312Z,45.11
2023-03-05T00:07:05.284Z,48.80
2023-03-05T00:08:05.270Z,49.02
2023-03-05T00:09:05.276Z,52.00
2023-03-05T00:10:05.267Z,49.49
2023-03-05T00:11:05.231Z,51.90
2023-03-05T00:12:05.248Z,46.32
2023-03-05T00:13:05.232Z,53.68
2023-03-05T00:14:05.210Z,54.88
2023-03-05T00:15:05.200Z,51.65
2023-03-05T00:16:05.254Z,46.11
2023-03-05T00:17:05.194Z,52.80
2023-03-05T00:18:05.169Z,52.03
2023-03-05T00:19:05.162Z,53.84
2023-03-05T00:20:05.140Z,49.81
2023-03-05T00:21:05.187Z,54.93
2023-03-05T00:22:05.159Z,54.16
2023-03-05T00:23:05.135Z,53.96
2023-03-05T00:24:05.106Z,51.12
2023-03-05T00:25:05.100Z,48.45
2023-03-05T00:26:05.100Z,50.09
2023-03-05T00:27:05.070Z,48.30
2023-03-05T00:28:05.058Z,51.53
2023-03-05T00:29:05.091Z,55.56
2023-03-05T00:30:05.045Z,53.72
2023-03-05T00:31:05.046Z,49.76
2023-03-05T00:32:05.045Z,49.39
2023-03-05T00:33:05.009Z,47.77
2023-03-05T00:34:05.029Z,51.32
2023-03-05T00:35:05.004Z,46.88
2023-03-05T00:36:05.039Z,52.55
2023-03-05T00:37:05.001Z,46.52
2023-03-05T00:38:04.971Z,45.83
2023-03-05T00:39:04.971Z,49.85
2023-03-05T00:40:04.976Z,49.47
2023-03-05T00:41:04.958Z,52.02
2023-03-05T00:42:04.930Z,52.20
2023-03-05T00:43:04.915Z,50.01
2023-03-05T00:44:04.908Z,48.37
2023-03-05T00:45:04.903Z,50.94
2023-03-05T00:46:04.975Z,47.06
2023-03-05T00:47:04.882Z,48.99
2023-03-05T00:48:04.887Z,50.26
2023-03-05T00:49:04.882Z,53.36
2023-03-05T00:50:04.866Z,50.98
2023-03-05T00:51:04.847Z,45.92
2023-03-05T00:52:04.871Z,50.56
2023-03-05T00:53:04.827Z,53.50
2023-03-05T00:54:04.802Z,48.89
2023-03-05T00:55:04.803Z,48.65
2023-03-05T00:56:04.811Z,44.87
2023-03-05T00:57:04.779Z,51.22
2023-03-05T00:58:04.784Z,49.03
2023-03-05T00:59:04.756Z,52.03
2023-03-05T01:00:04.755Z,47.71
2023-03-05T01:01:04.745Z,46.51
2023-03-05T01:02:04.828Z,52.09
2023-03-05T01:03:04.729Z,46.91
2023-03-05T01:04:04.705Z,46.55
2023-03-05T01:05:04.725Z,47.26
2023-03-05T01:06:04.669Z,45.17
2023-03-05T01:07:04.670Z,46.11
2023-03-05T01:08:04.671Z,45.42
2023-03-05T01:09:04.636Z,50.99
2023-03-05T01:10:04.643Z,48.77
2023-03-05T01:11:04.636Z,51.42
2023-03-05T01:12:04.598Z,47.40
2023-03-05T01:13:04.594Z,47.13
2023-03-05T01:14:04.593Z,44.65
2023-03-05T01:15:04.574Z,48.38
2023-03-05T01:16:04.619Z,50.25
2023-03-05T01:17:04.534Z,52.56
2023-03-05T01:18:04.526Z,52.73
2023-03-05T01:19:04.546Z,49.76
2023-03-05T01:20:04.510Z,45.43
2023-03-05T01:21:04.504Z,48.07
2023-03-05T01:22:04.493Z,48.59
2023-03-05T01:23:05.473Z,46.16
2023-03-05T01:24:04.489Z,51.42
2023-03-05T01:25:04.461Z,46.18
2023-03-05T01:26:04.458Z,47.79
2023-03-05T01:27:04.448Z,51.00
2023-03-05T01:28:04.446Z,49.51
2023-03-05T01:29:04.424Z,50.98
2023-03-05T01:30:04.418Z,53.19
2023-03-05T01:31:04.428Z,52.78
2023-03-05T01:32:04.429Z,49.96
2023-03-05T01:33:04.384Z,50.46
2023-03-05T01:34:04.356Z,50.36
2023-03-05T01:35:04.353Z,44.92
2023-03-05T01:36:04.352Z,47.08
2023-03-05T01:37:04.368Z,51.35
2023-03-05T01:38:04.317Z,57.38
2023-03-05T01:39:04.310Z,52.64
2023-03-05T01:40:04.300Z,51.48
2023-03-05T01:41:04.306Z,50.27
2023-03-05T01:42:04.347Z,54.45
2023-03-05T01:43:04.265Z,51.02
2023-03-05T01:44:04.279Z,53.97
2023-03-05T01:45:04.268Z,49.15
2023-03-05T01:46:04.240Z,49.26
2023-03-05T01:47:04.235Z,52.24
2023-03-05T01:48:04.249Z,50.06
2023-03-05T01:49:04.210Z,51.22
2023-03-05T01:50:04.195Z,49.68
2023-03-05T01:51:04.181Z,47.99
2023-03-05T01:52:04.161Z,46.13
2023-03-05T01:53:04.161Z,52.10
2023-03-05T01:54:04.157Z,50.94
2023-03-05T01:55:04.129Z,47.87
2023-03-05T01:56:04.128Z,49.32
2023-03-05T01:57:04.103Z,49.49
2023-03-05T01:58:04.107Z,46.43
2023-03-05T01:59:04.103Z,47.76
2023-03-05T02:00:04.083Z,45.92
2023-03-05T02:01:04.122Z,49.74
2023-03-05T02:02:04.091Z,46.80
2023-03-05T02:03:04.068Z,50.30
2023-03-05T02:04:04.081Z,45.71
2023-03-05T02:05:04.043Z,48.80
2023-03-05T02:06:04.018Z,48.63
2023-03-05T02:07:04.011Z,50.15
2023-03-05T02:08:04.000Z,53.34
2023-03-05T02:09:03.991Z,45.42
2023-03-05T02:10:03.971Z,46.36
2023-03-05T02:11:04.012Z,45.09
2023-03-05T02:12:03.955Z,43.70
2023-03-05T02:13:03.944Z,47.56
2023-03-05T02:14:03.940Z,48.69
2023-03-05T02:15:03.934Z,47.43
2023-03-05T02:16:04.036Z,48.78
2023-03-05T02:17:03.929Z,44.71
2023-03-05T02:18:03.899Z,45.94
2023-03-05T02:19:03.891Z,44.12
2023-03-05T02:20:03.917Z,49.76
2023-03-05T02:21:03.871Z,45.73
2023-03-05T02:22:03.860Z,49.95
2023-03-05T02:23:03.882Z,49.22
2023-03-05T02:24:03.846Z,48.78
2023-03-05T02:25:03.826Z,50.53
2023-03-05T02:26:03.829Z,46.10
2023-03-05T02:27:03.817Z,49.50
2023-03-05T02:28:04.799Z,48.70
2023-03-05T02:29:03.785Z,46.81
2023-03-05T02:30:03.795Z,52.29
2023-03-05T02:31:03.775Z,48.97
2023-03-05T02:32:03.890Z,48.81
2023-03-05T02:33:03.744Z,48.45
2023-03-05T02:34:03.751Z,46.22
2023-03-05T02:35:03.730Z,51.31
2023-03-05T02:36:03.714Z,50.84
2023-03-05T02:37:03.688Z,51.57
2023-03-05T02:38:03.687Z,47.28
2023-03-05T02:39:03.695Z,51.59
2023-03-05T02:40:03.665Z,51.74
2023-03-05T02:41:03.655Z,50.72
2023-03-05T02:42:03.655Z,46.94
2023-03-05T02:43:03.638Z,46.59
2023-03-05T02:44:03.620Z,47.95
2023-03-05T02:45:03.628Z,45.31
2023-03-05T02:46:03.617Z,46.96
2023-03-05T02:47:03.657Z,46.44
2023-03-05T02:48:03.590Z,46.66
2023-03-05T02:49:03.586Z,48.92
2023-03-05T02:50:03.575Z,48.09
2023-03-05T02:51:03.562Z,47.78
2023-03-05T02:52:03.562Z,49.22
2023-03-05T02:53:03.560Z,48.09
2023-03-05T02:54:03.517Z,44.78
2023-03-05T02:55:03.528Z,49.17
2023-03-05T02:56:03.526Z,44.98
2023-03-05T02:57:03.509Z,45.07
2023-03-05T02:58:03.485Z,44.59
2023-03-05T02:59:03.484Z,53.01
2023-03-05T03:00:03.524Z,44.50
2023-03-05T03:01:03.477Z,45.81
2023-03-05T03:02:03.455Z,44.75
2023-03-05T03:03:03.453Z,47.20
2023-03-05T03:04:03.441Z,46.58
2023-03-05T03:05:03.437Z,45.25
2023-03-05T03:06:03.413Z,44.60
2023-03-05T03:07:03.393Z,44.95
2023-03-05T03:08:03.391Z,52.22
2023-03-05T03:09:03.369Z,48.74
2023-03-05T03:10:03.388Z,54.10
2023-03-05T03:11:03.349Z,52.58
2023-03-05T03:12:03.345Z,51.76
2023-03-05T03:13:03.346Z,44.98
2023-03-05T03:14:03.325Z,49.31
2023-03-05T03:15:03.309Z,45.32
2023-03-05T03:16:03.304Z,44.16
2023-03-05T03:17:03.331Z,48.63
2023-03-05T03:18:03.295Z,46.32
2023-03-05T03:19:03.281Z,44.89
2023-03-05T03:20:03.295Z,46.21
2023-03-05T03:21:03.251Z,45.14
2023-03-05T03:22:03.243Z,49.94
2023-03-05T03:23:03.253Z,45.34
2023-03-05T03:24:03.226Z,47.77
2023-03-05T03:25:03.213Z,45.48
2023-03-05T03:26:03.202Z,48.45
2023-03-05T03:27:03.184Z,48.71
2023-03-05T03:28:03.199Z,46.90
2023-03-05T03:29:03.162Z,53.32
2023-03-05T03:30:04.155Z,52.56
2023-03-05T03:31:04.208Z,45.19
2023-03-05T03:32:03.162Z,47.06
2023-03-05T03:33:03.116Z,45.84
2023-03-05T03:34:03.131Z,53.34
2023-03-05T03:35:03.106Z,55.70
2023-03-05T03:36:03.103Z,47.83
2023-03-05T03:37:03.096Z,46.52
2023-03-05T03:38:03.064Z,47.20
2023-03-05T03:39:03.068Z,46.72
2023-03-05T03:40:03.063Z,48.05
2023-03-05T03:41:03.029Z,47.52
2023-03-05T03:42:03.032Z,46.64
2023-03-05T03:43:03.032Z,44.35
2023-03-05T03:44:03.012Z,44.26
2023-03-05T03:45:03.008Z,46.31
2023-03-05T03:46:02.998Z,44.57
2023-03-05T03:47:03.007Z,49.40
2023-03-05T03:48:02.964Z,46.91
2023-03-05T03:49:02.965Z,45.14
2023-03-05T03:50:02.962Z,46.94
2023-03-05T03:51:02.961Z,49.07
2023-03-05T03:52:02.936Z,45.90
2023-03-05T03:53:02.926Z,52.03
2023-03-05T03:54:02.915Z,50.72
2023-03-05T03:55:02.934Z,51.49
2023-03-05T03:56:02.886Z,49.12
2023-03-05T03:57:02.863Z,46.26
2023-03-05T03:58:02.869Z,47.30
2023-03-05T03:59:02.866Z,48.93
2023-03-05T04:00:02.873Z,48.64
2023-03-05T04:01:02.853Z,45.09
2023-03-05T04:02:02.826Z,44.99
2023-03-05T04:03:02.825Z,46.28
2023-03-05T04:04:02.831Z,46.57
2023-03-05T04:05:02.803Z,49.15
2023-03-05T04:06:02.792Z,46.80
2023-03-05T04:07:02.774Z,52.33
2023-03-05T04:08:02.770Z,46.31
2023-03-05T04:09:02.772Z,49.01
2023-03-05T04:10:02.761Z,44.54
2023-03-05T04:11:02.734Z,44.37
2023-03-05T04:12:02.725Z,47.62
2023-03-05T04:13:02.729Z,50.78
2023-03-05T04:14:02.708Z,48.41
2023-03-05T04:15:02.703Z,49.46
2023-03-05T04:16:02.744Z,52.24
2023-03-05T04:17:02.678Z,54.10
2023-03-05T04:18:02.668Z,51.43
2023-03-05T04:19:02.639Z,48.33
2023-03-05T04:20:02.653Z,45.09
2023-03-05T04:21:02.639Z,49.36
2023-03-05T04:22:02.618Z,48.90
2023-03-05T04:23:02.613Z,47.75
2023-03-05T04:24:02.600Z,48.78
2023-03-05T04:25:02.585Z,47.42
2023-03-05T04:26:02.595Z,50.93
2023-03-05T04:27:02.566Z,45.96
2023-03-05T04:28:02.552Z,49.50
2023-03-05T04:29:02.547Z,50.84
2023-03-05T04:30:02.524Z,48.33
2023-03-05T04:31:02.630Z,53.36
2023-03-05T04:32:02.558Z,46.79
2023-03-05T04:33:02.496Z,50.28
2023-03-05T04:34:02.494Z,51.09
2023-03-05T04:35:02.484Z,47.44
2023-03-05T04:36:02.482Z,51.76
2023-03-05T04:37:02.769Z,54.22
2023-03-05T04:38:02.438Z,46.67
2023-03-05T04:39:02.436Z,48.28
2023-03-05T04:40:02.453Z,46.68
2023-03-05T04:41:02.407Z,44.00
2023-03-05T04:42:02.397Z,47.20
2023-03-05T04:43:02.419Z,50.13
2023-03-05T04:44:02.391Z,47.81
2023-03-05T04:45:02.366Z,46.27
2023-03-05T04:46:02.368Z,50.22
2023-03-05T04:47:02.390Z,47.15
2023-03-05T04:48:02.332Z,50.14
2023-03-05T04:49:02.342Z,46.07
2023-03-05T04:50:02.319Z,46.95
2023-03-05T04:51:02.312Z,49.81
2023-03-05T04:52:02.312Z,48.82
2023-03-05T04:53:02.284Z,48.58
2023-03-05T04:54:02.272Z,49.68
2023-03-05T04:55:02.280Z,49.84
2023-03-05T04:56:02.264Z,48.75
2023-03-05T04:57:02.269Z,47.71
2023-03-05T04:58:02.238Z,62.63
2023-03-05T04:59:02.229Z,51.48
2023-03-05T05:00:02.222Z,48.35
2023-03-05T05:01:02.216Z,49.89
2023-03-05T05:02:02.347Z,47.56
2023-03-05T05:03:02.223Z,48.08
2023-03-05T05:04:02.193Z,51.07
2023-03-05T05:05:02.163Z,49.73
2023-03-05T05:06:02.154Z,47.06
2023-03-05T05:07:03.163Z,47.15
2023-03-05T05:08:02.134Z,44.88
2023-03-05T05:09:02.148Z,45.87
2023-03-05T05:10:02.101Z,50.44
2023-03-05T05:11:03.127Z,49.39
2023-03-05T05:12:02.114Z,48.18
2023-03-05T05:13:02.074Z,50.27
2023-03-05T05:14:02.082Z,45.66
2023-03-05T05:15:02.068Z,48.00
2023-03-05T05:16:02.121Z,49.39
2023-03-05T05:17:02.033Z,53.04
2023-03-05T05:18:02.039Z,51.07
2023-03-05T05:19:02.059Z,48.69
2023-03-05T05:20:02.019Z,47.19
2023-03-05T05:21:02.000Z,49.53
2023-03-05T05:22:02.008Z,48.11
2023-03-05T05:23:01.999Z,51.27
2023-03-05T05:24:01.981Z,47.97
2023-03-05T05:25:01.976Z,50.04
2023-03-05T05:26:01.950Z,53.56
2023-03-05T05:27:01.953Z,48.37
2023-03-05T05:28:01.947Z,50.83
2023-03-05T05:29:01.922Z,50.84
2023-03-05T05:30:01.945Z,49.36
2023-03-05T05:31:01.901Z,46.47
2023-03-05T05:32:01.954Z,51.12
2023-03-05T05:33:01.890Z,48.24
2023-03-05T05:34:01.893Z,51.78
2023-03-05T05:35:01.879Z,50.76
2023-03-05T05:36:01.940Z,52.34
2023-03-05T05:37:01.850Z,48.90
2023-03-05T05:38:01.838Z,51.52
2023-03-05T05:39:01.825Z,50.10
2023-03-05T05:40:01.793Z,61.45
2023-03-05T05:41:01.802Z,52.59
2023-03-05T05:42:01.788Z,47.72
2023-03-05T05:43:01.787Z,50.55
2023-03-05T05:44:01.779Z,49.78
2023-03-05T05:45:01.769Z,49.73
2023-03-05T05:46:01.910Z,49.03
2023-03-05T05:47:01.791Z,51.73
2023-03-05T05:48:01.721Z,51.47
2023-03-05T05:49:01.721Z,49.56
2023-03-05T05:50:01.756Z,47.68
2023-03-05T05:51:01.710Z,47.07
2023-03-05T05:52:01.686Z,51.78
2023-03-05T05:53:01.684Z,51.88
2023-03-05T05:54:01.681Z,52.16
2023-03-05T05:55:02.669Z,54.32
2023-03-05T05:56:01.672Z,46.13
2023-03-05T05:57:01.645Z,47.09
2023-03-05T05:58:01.622Z,49.02
2023-03-05T05:59:01.616Z,50.04
2023-03-05T06:00:01.623Z,50.39
2023-03-05T06:01:01.589Z,50.00
2023-03-05T06:02:01.630Z,47.35
2023-03-05T06:03:01.742Z,50.15
2023-03-05T06:04:01.559Z,52.47
2023-03-05T06:05:01.577Z,52.89
2023-03-05T06:06:01.546Z,49.51
2023-03-05T06:07:01.526Z,50.37
2023-03-05T06:08:01.525Z,45.14
2023-03-05T06:09:01.516Z,44.56
2023-03-05T06:10:01.516Z,45.25
2023-03-05T06:11:01.506Z,49.50
2023-03-05T06:12:01.472Z,48.52
2023-03-05T06:13:01.476Z,51.96
2023-03-05T06:14:01.451Z,50.26
2023-03-05T06:15:01.470Z,51.78
2023-03-05T06:16:01.452Z,53.14
2023-03-05T06:17:01.432Z,53.85
2023-03-05T06:18:01.423Z,52.67
2023-03-05T06:19:03.960Z,50.59
2023-03-05T06:20:01.411Z,49.98
2023-03-05T06:21:01.377Z,46.57
2023-03-05T06:22:01.390Z,47.95
2023-03-05T06:23:01.392Z,48.14
2023-03-05T06:24:01.351Z,47.03
2023-03-05T06:25:02.386Z,49.51
2023-03-05T06:26:01.332Z,48.29
2023-03-05T06:27:01.320Z,47.68
2023-03-05T06:28:01.335Z,47.50
2023-03-05T06:29:01.312Z,48.87
2023-03-05T06:30:01.308Z,48.39
2023-03-05T06:31:01.318Z,45.74
2023-03-05T06:32:01.345Z,47.65
2023-03-05T06:33:01.267Z,46.29
2023-03-05T06:34:01.388Z,46.55
2023-03-05T06:35:01.236Z,49.92
2023-03-05T06:36:01.253Z,47.31
2023-03-05T06:37:01.238Z,47.86
2023-03-05T06:38:01.201Z,49.98
2023-03-05T06:39:01.189Z,49.22
2023-03-05T06:40:01.199Z,53.23
2023-03-05T06:41:01.211Z,54.37
2023-03-05T06:42:01.252Z,51.99
2023-03-05T06:43:01.157Z,47.77
2023-03-05T06:44:01.144Z,51.11
2023-03-05T06:45:01.145Z,51.88
2023-03-05T06:46:01.191Z,53.40
2023-03-05T06:47:01.115Z,53.56
2023-03-05T06:48:01.104Z,51.23
2023-03-05T06:49:01.099Z,50.59
2023-03-05T06:50:01.097Z,50.45
2023-03-05T06:51:01.069Z,54.03
2023-03-05T06:52:01.074Z,51.42
2023-03-05T06:53:01.049Z,48.33
2023-03-05T06:54:01.053Z,50.86
2023-03-05T06:55:01.055Z,50.82
2023-03-05T06:56:01.041Z,57.96
2023-03-05T06:57:01.047Z,54.35
2023-03-05T06:58:01.989Z,50.51
2023-03-05T06:59:00.998Z,57.33
2023-03-05T07:00:00.981Z,56.56
2023-03-05T07:01:01.035Z,56.69
2023-03-05T07:02:01.044Z,53.49
2023-03-05T07:03:00.961Z,55.65
2023-03-05T07:04:00.948Z,52.63
2023-03-05T07:05:00.933Z,49.35
2023-03-05T07:06:00.922Z,53.74
2023-03-05T07:07:00.926Z,50.54
2023-03-05T07:08:00.921Z,51.49
2023-03-05T07:09:00.891Z,54.92
2023-03-05T07:10:00.881Z,53.06
2023-03-05T07:11:00.884Z,51.83
2023-03-05T07:12:00.864Z,50.81
2023-03-05T07:13:00.868Z,51.68
2023-03-05T07:14:00.838Z,54.41
2023-03-05T07:15:00.854Z,51.59
2023-03-05T07:16:00.838Z,53.65
2023-03-05T07:17:00.820Z,50.67
2023-03-05T07:18:00.798Z,54.34
2023-03-05T07:19:00.777Z,52.55
2023-03-05T07:20:00.784Z,54.76
2023-03-05T07:21:00.786Z,55.44
2023-03-05T07:22:00.755Z,53.92
2023-03-05T07:23:00.748Z,50.15
2023-03-05T07:24:00.730Z,54.96
2023-03-05T07:25:00.753Z,55.18
2023-03-05T07:26:00.733Z,53.49
2023-03-05T07:27:00.732Z,52.32
2023-03-05T07:28:00.698Z,50.55
2023-03-05T07:29:00.689Z,50.69
2023-03-05T07:30:00.688Z,52.56
2023-03-05T07:31:00.717Z,56.65
2023-03-05T07:32:00.712Z,52.47
2023-03-05T07:33:00.636Z,52.95
2023-03-05T07:34:00.634Z,56.18
2023-03-05T07:35:00.621Z,56.73
2023-03-05T07:36:00.668Z,52.25
2023-03-05T07:37:00.609Z,55.62
2023-03-05T07:38:00.584Z,55.23
2023-03-05T07:39:00.602Z,57.17
2023-03-05T07:40:00.560Z,55.98
2023-03-05T07:41:00.564Z,53.72
2023-03-05T07:42:00.611Z,57.88
2023-03-05T07:43:00.542Z,52.76
2023-03-05T07:44:00.529Z,55.18
2023-03-05T07:45:00.537Z,54.70
2023-03-05T07:46:00.569Z,54.69
2023-03-05T07:47:00.514Z,56.20
2023-03-05T07:48:00.496Z,54.08
2023-03-05T07:49:00.549Z,55.57
2023-03-05T07:50:00.496Z,58.13
2023-03-05T07:51:00.481Z,49.89
2023-03-05T07:52:00.471Z,54.32
2023-03-05T07:53:00.453Z,56.26
2023-03-05T07:54:00.436Z,52.31
2023-03-05T07:55:00.439Z,55.58
2023-03-05T07:56:00.420Z,55.43
2023-03-05T07:57:00.402Z,54.42
2023-03-05T07:58:00.387Z,53.77
2023-03-05T07:59:00.385Z,51.91
2023-03-05T08:00:00.369Z,53.57
2023-03-05T08:01:00.376Z,52.92
2023-03-05T08:02:00.350Z,50.31
2023-03-05T08:03:00.351Z,53.03
2023-03-05T08:04:00.374Z,50.85
2023-03-05T08:05:00.345Z,54.76
2023-03-05T08:06:00.338Z,53.81
2023-03-05T08:07:00.299Z,51.51
2023-03-05T08:08:00.307Z,53.00
2023-03-05T08:09:00.291Z,52.64
2023-03-05T08:10:00.284Z,53.44
2023-03-05T08:11:01.027Z,53.57
2023-03-05T08:12:00.247Z,54.00
2023-03-05T08:13:00.233Z,54.52
2023-03-05T08:14:00.228Z,56.66
2023-03-05T08:15:00.225Z,51.75
2023-03-05T08:16:00.255Z,54.92
2023-03-05T08:17:00.192Z,54.01
2023-03-05T08:18:00.209Z,52.92
2023-03-05T08:19:00.175Z,51.82
2023-03-05T08:20:00.206Z,53.05
2023-03-05T08:21:00.191Z,52.18
2023-03-05T08:22:00.167Z,51.36
2023-03-05T08:23:00.136Z,52.20
2023-03-05T08:24:00.129Z,53.50
2023-03-05T08:25:00.151Z,53.21
2023-03-05T08:26:00.142Z,53.13
2023-03-05T08:27:00.121Z,51.75
2023-03-05T08:28:00.096Z,53.48
2023-03-05T08:29:00.104Z,54.66
2023-03-05T08:30:00.115Z,55.35
2023-03-05T08:31:00.150Z,59.01
2023-03-05T08:32:00.169Z,53.62
2023-03-05T08:33:00.048Z,55.15
2023-03-05T08:34:00.030Z,54.57
2023-03-05T08:35:00.016Z,54.65
2023-03-05T08:36:00.076Z,57.23
2023-03-05T08:37:00.002Z,57.59
2023-03-05T08:37:59.972Z,54.27
2023-03-05T08:38:59.987Z,57.99
2023-03-05T08:39:59.956Z,56.74
2023-03-05T08:40:59.965Z,57.96
2023-03-05T08:41:59.970Z,59.00
2023-03-05T08:42:59.937Z,59.88
2023-03-05T08:43:59.929Z,60.30
2023-03-05T08:44:59.926Z,59.50
2023-03-05T08:45:59.903Z,59.95
2023-03-05T08:46:59.963Z,57.97
2023-03-05T08:47:59.874Z,60.15
2023-03-05T08:48:59.876Z,62.18
2023-03-05T08:49:59.864Z,57.40
2023-03-05T08:50:59.851Z,59.95
2023-03-05T08:51:59.840Z,62.08
2023-03-05T08:52:59.847Z,62.79
2023-03-05T08:53:59.823Z,62.17
2023-03-05T08:54:59.799Z,57.74
2023-03-05T08:55:59.828Z,57.51
2023-03-05T08:56:59.771Z,59.68
2023-03-05T08:57:59.780Z,59.30
2023-03-05T08:58:59.799Z,57.97
2023-03-05T08:59:59.791Z,57.71
2023-03-05T09:00:59.742Z,57.78
2023-03-05T09:01:59.769Z,57.26
2023-03-05T09:02:59.783Z,56.81
2023-03-05T09:03:59.709Z,58.33
2023-03-05T09:04:59.753Z,56.51
2023-03-05T09:05:59.705Z,55.86
2023-03-05T09:06:59.713Z,58.15
2023-03-05T09:07:59.682Z,57.59
2023-03-05T09:08:59.686Z,59.63
2023-03-05T09:09:59.652Z,56.70
2023-03-05T09:10:59.624Z,56.03
2023-03-05T09:11:59.661Z,55.93
2023-03-05T09:12:59.640Z,57.91
2023-03-05T09:13:59.623Z,57.14
2023-03-05T09:14:59.632Z,57.08
2023-03-05T09:15:59.625Z,57.63
2023-03-05T09:16:59.622Z,56.80
2023-03-05T09:17:59.602Z,56.94
2023-03-05T09:18:59.545Z,57.25
2023-03-05T09:19:59.569Z,56.21
2023-03-05T09:20:59.551Z,57.30
2023-03-05T09:21:59.540Z,57.68
2023-03-05T09:22:59.563Z,58.23
2023-03-05T09:23:59.543Z,56.09
2023-03-05T09:24:59.478Z,55.94
2023-03-05T09:25:59.481Z,55.73
2023-03-05T09:26:59.519Z,55.36
2023-03-05T09:27:59.438Z,54.89
2023-03-05T09:29:00.475Z,60.52
2023-03-05T09:29:59.452Z,55.99
2023-03-05T09:30:59.434Z,55.70
2023-03-05T09:31:59.547Z,57.97
2023-03-05T09:32:59.448Z,56.38
2023-03-05T09:33:59.406Z,57.51
2023-03-05T09:34:59.397Z,56.16
2023-03-05T09:35:59.472Z,56.49
2023-03-05T09:36:59.369Z,55.20
2023-03-05T09:37:59.376Z,59.36
2023-03-05T09:38:59.412Z,58.79
2023-03-05T09:39:59.355Z,55.05
2023-03-05T09:40:59.342Z,55.58
2023-03-05T09:41:59.331Z,54.58
2023-03-05T09:42:59.381Z,55.23
2023-03-05T09:43:59.310Z,54.53
2023-03-05T09:44:59.301Z,55.89
2023-03-05T09:45:59.312Z,55.23
2023-03-05T09:46:59.296Z,52.31
2023-03-05T09:47:59.294Z,56.31
2023-03-05T09:48:59.231Z,56.04
2023-03-05T09:49:59.233Z,57.27
2023-03-05T09:50:59.269Z,55.67
2023-03-05T09:51:59.190Z,58.02
2023-03-05T09:53:00.231Z,54.37
2023-03-05T09:54:01.587Z,58.26
2023-03-05T09:54:59.176Z,55.84
2023-03-05T09:55:59.181Z,55.74
2023-03-05T09:56:59.211Z,55.54
2023-03-05T09:57:59.185Z,58.82
2023-03-05T09:58:59.147Z,60.69
2023-03-05T09:59:59.155Z,59.85
2023-03-05T10:00:59.113Z,58.04
2023-03-05T10:01:59.135Z,55.46
2023-03-05T10:02:59.167Z,58.72
2023-03-05T10:03:59.127Z,58.53
2023-03-05T10:04:59.069Z,58.42
2023-03-05T10:05:59.080Z,52.78
2023-03-05T10:06:59.109Z,58.48
2023-03-05T10:07:59.037Z,57.91
2023-03-05T10:08:59.098Z,56.60
2023-03-05T10:09:59.046Z,58.08
2023-03-05T10:10:59.025Z,58.94
2023-03-05T10:11:59.020Z,55.90
2023-03-05T10:12:59.034Z,58.04
2023-03-05T10:13:58.995Z,56.30
2023-03-05T10:14:58.994Z,58.00
2023-03-05T10:15:59.035Z,56.65
2023-03-05T10:16:58.943Z,57.52
2023-03-05T10:17:58.943Z,56.15
2023-03-05T10:18:58.964Z,61.09
2023-03-05T10:19:58.945Z,59.34
2023-03-05T10:20:58.959Z,60.34
2023-03-05T10:21:58.925Z,57.58
2023-03-05T10:22:58.927Z,58.71
2023-03-05T10:23:58.892Z,57.43
2023-03-05T10:24:58.901Z,57.37
2023-03-05T10:25:58.897Z,59.45
2023-03-05T10:26:58.913Z,57.13
2023-03-05T10:27:59.856Z,58.06
2023-03-05T10:28:58.877Z,60.26
2023-03-05T10:29:58.853Z,58.96
2023-03-05T10:30:58.823Z,60.80
2023-03-05T10:31:58.905Z,60.04
2023-03-05T10:32:58.784Z,59.60
2023-03-05T10:33:59.812Z,59.19
2023-03-05T10:34:58.788Z,59.77
2023-03-05T10:35:58.855Z,58.51
2023-03-05T10:36:58.746Z,56.54
2023-03-05T10:37:58.768Z,57.51
2023-03-05T10:38:58.762Z,57.24
2023-03-05T10:39:58.706Z,58.26
2023-03-05T10:40:58.732Z,59.84
2023-03-05T10:41:58.713Z,59.29
2023-03-05T10:42:58.700Z,59.33
2023-03-05T10:43:58.673Z,58.69
2023-03-05T10:44:58.701Z,58.34
2023-03-05T10:45:58.723Z,56.32
2023-03-05T10:46:58.626Z,56.94
2023-03-05T10:47:58.658Z,59.00
2023-03-05T10:48:58.682Z,58.30
2023-03-05T10:49:58.636Z,58.26
2023-03-05T10:50:58.602Z,60.85
2023-03-05T10:51:58.594Z,59.88
2023-03-05T10:52:58.631Z,59.41
2023-03-05T10:53:58.583Z,58.42
2023-03-05T10:54:58.555Z,58.39
2023-03-05T10:55:58.582Z,59.22
2023-03-05T10:56:58.539Z,59.06
2023-03-05T10:57:58.548Z,58.60
2023-03-05T10:58:58.530Z,58.52
2023-03-05T10:59:58.529Z,58.27
2023-03-05T11:00:58.515Z,57.47
2023-03-05T11:01:58.483Z,56.09
2023-03-05T11:02:58.558Z,57.49
2023-03-05T11:03:58.470Z,55.93
2023-03-05T11:04:58.480Z,57.07
2023-03-05T11:05:58.480Z,57.27
2023-03-05T11:06:58.439Z,57.24
2023-03-05T11:07:58.430Z,58.77
2023-03-05T11:08:58.443Z,59.46
2023-03-05T11:09:58.407Z,59.91
2023-03-05T11:10:58.400Z,60.29
2023-03-05T11:11:58.404Z,58.38
2023-03-05T11:12:58.368Z,56.69
2023-03-05T11:13:58.365Z,59.22
2023-03-05T11:14:58.397Z,58.39
2023-03-05T11:15:58.400Z,57.44
2023-03-05T11:16:58.322Z,60.55
2023-03-05T11:17:58.382Z,59.89
2023-03-05T11:18:58.369Z,61.10
2023-03-05T11:19:58.306Z,59.83
2023-03-05T11:20:58.289Z,60.73
2023-03-05T11:21:59.800Z,59.33
2023-03-05T11:22:59.276Z,60.36
2023-03-05T11:23:58.283Z,61.48
2023-03-05T11:24:58.261Z,62.09
2023-03-05T11:25:58.234Z,64.00
2023-03-05T11:26:58.234Z,65.02
2023-03-05T11:27:58.200Z,63.86
2023-03-05T11:28:58.243Z,61.81
2023-03-05T11:29:58.197Z,60.80
2023-03-05T11:30:58.230Z,62.97
2023-03-05T11:31:58.211Z,62.15
2023-03-05T11:32:58.191Z,59.99
2023-03-05T11:33:58.152Z,62.80
2023-03-05T11:34:58.133Z,63.60
2023-03-05T11:35:58.194Z,61.62
2023-03-05T11:36:58.126Z,61.17
2023-03-05T11:37:58.136Z,62.59
2023-03-05T11:38:58.123Z,60.16
2023-03-05T11:39:58.097Z,61.45
2023-03-05T11:40:58.075Z,61.30
2023-03-05T11:41:58.074Z,62.90
2023-03-05T11:42:58.078Z,62.80
2023-03-05T11:43:58.047Z,62.58
2023-03-05T11:44:58.068Z,63.31
2023-03-05T11:45:59.159Z,61.56
2023-03-05T11:46:58.007Z,60.36
2023-03-05T11:47:58.006Z,60.58
2023-03-05T11:48:58.014Z,59.61
2023-03-05T11:49:57.997Z,63.58
2023-03-05T11:50:57.977Z,61.87
2023-03-05T11:51:57.960Z,62.99
2023-03-05T11:52:58.005Z,60.48
2023-03-05T11:53:57.954Z,60.46
2023-03-05T11:54:57.944Z,59.66
2023-03-05T11:55:57.968Z,61.19
2023-03-05T11:56:57.932Z,60.75
2023-03-05T11:57:57.919Z,58.61
2023-03-05T11:58:57.888Z,61.93
2023-03-05T11:59:57.917Z,62.22
2023-03-05T12:00:57.889Z,62.03
2023-03-05T12:01:57.864Z,61.20
2023-03-05T12:02:57.941Z,58.94
2023-03-05T12:03:57.923Z,59.92
2023-03-05T12:04:57.837Z,62.76
2023-03-05T12:05:57.827Z,61.25
2023-03-05T12:06:57.845Z,60.31
2023-03-05T12:07:57.827Z,62.54
2023-03-05T12:08:57.829Z,61.39
2023-03-05T12:09:57.785Z,60.05
2023-03-05T12:10:57.796Z,57.56
2023-03-05T12:11:57.760Z,59.16
2023-03-05T12:12:57.745Z,59.68
2023-03-05T12:13:57.762Z,59.91
2023-03-05T12:14:57.787Z,60.44
2023-03-05T12:15:57.862Z,60.26
2023-03-05T12:16:57.741Z,60.39
2023-03-05T12:17:57.735Z,58.95
2023-03-05T12:18:57.732Z,59.71
2023-03-05T12:19:57.695Z,58.74
2023-03-05T12:20:57.658Z,60.75
2023-03-05T12:21:57.664Z,58.32
2023-03-05T12:22:57.695Z,61.47
2023-03-05T12:23:57.608Z,60.20
2023-03-05T12:24:57.653Z,59.37
2023-03-05T12:25:57.618Z,59.17
2023-03-05T12:26:58.618Z,60.67
2023-03-05T12:27:57.608Z,60.99
2023-03-05T12:28:57.642Z,61.67
2023-03-05T12:29:57.598Z,61.40
2023-03-05T12:30:57.557Z,60.45
2023-03-05T12:31:57.632Z,60.13
2023-03-05T12:32:57.555Z,60.31
2023-03-05T12:33:58.015Z,61.10
2023-03-05T12:34:57.566Z,61.13
2023-03-05T12:35:57.546Z,62.46
2023-03-05T12:36:57.527Z,62.68
2023-03-05T12:37:57.536Z,60.79
2023-03-05T12:38:57.549Z,62.97
2023-03-05T12:39:57.467Z,61.55
2023-03-05T12:40:57.506Z,59.44
2023-03-05T12:41:57.485Z,58.79
2023-03-05T12:42:57.489Z,58.71
2023-03-05T12:43:57.499Z,60.02
2023-03-05T12:44:57.460Z,61.11
2023-03-05T12:45:57.442Z,60.02
2023-03-05T12:46:57.529Z,59.95
2023-03-05T12:47:57.435Z,61.44
2023-03-05T12:48:57.401Z,58.29
2023-03-05T12:49:57.419Z,57.88
2023-03-05T12:50:57.383Z,59.39
2023-03-05T12:51:58.385Z,59.02